aviador You're here:

LFCR Decoded Metar

RODEZ in FRANCE
Report Time2017-08-23 04:00:00
UTC Time2017-08-23 04:08:42
Flight Rules mvfr MVFR
Wind250° at 06 kt
W.Decomp.*RWY 31: 3.0 kt HW 5.2 kt LCW
W.Rank250° ranks 15
Current wind is below 250° avg. (6.5)
Visibility9999 m
Phenomena:N/A
Clouds:Overcast 011 Hf
Expected CloudBase > 800 ft AGL from Temp-Dew spread
Ceiling1,100 ft
Temp18°C (ISA +7)
Dew Point16°C (88% RH)
AAT17.8°C
QNH1020 hPa
Density Alt2,713 ft
Elevation1,903 ft
Report Wrong Elevation
Raw Report
METAR LFCR 230400Z AUTO 25006KT 9999 OVC011 18/16 Q1020 TEMPO BKN006=

Extra information for LFCR:More info

Metar Taf Metar & Taf Last 4 Metars F.Rules Stats Wind Profile Meteogram Temp Stats Airport Information Weather charts Add Link Nearby VenuesMetar ALERT Operation Metar Decoded Social comments